Time;durP1;ratioP1;P1;durP2;ratioP2;P2;SDS_P1;SDS_P2;PMS_P1;PMS_P2;Temp;Humidity;BMP_temperature;BMP_pressure;BME280_temperature;BME280_humidity;BME280_pressure;Samples;Min_cycle;Max_cycle;Signal;HPM_P1;HPM_P2
2023/11/28 00:02:19;;;;;;;4.15;3.85;;;;;;;;;;4970160;28;20043;-77
2023/11/28 00:04:45;;;;;;;5.00;4.60;;;;;;;;;;4972157;28;20050;-77
2023/11/28 00:07:11;;;;;;;4.45;4.15;;;;;;;;;;4971710;28;20809;-77
2023/11/28 00:09:38;;;;;;;4.47;4.18;;;;;;;;;;4971266;28;20046;-76
2023/11/28 00:12:04;;;;;;;3.95;3.65;;;;;;;;;;4966106;28;20039;-75
2023/11/28 00:14:30;;;;;;;8.68;5.50;;;;;;;;;;4973530;28;20050;-77
2023/11/28 00:16:56;;;;;;;4.35;4.05;;;;;;;;;;4975387;28;20105;-76
2023/11/28 00:19:23;;;;;;;6.75;4.35;;;;;;;;;;4941119;28;20101;-76
2023/11/28 00:21:49;;;;;;;5.93;5.43;;;;;;;;;;4974090;28;20043;-77
2023/11/28 00:24:16;;;;;;;6.22;5.38;;;;;;;;;;4961758;28;20065;-75
2023/11/28 00:26:43;;;;;;;6.05;5.55;;;;;;;;;;4971390;28;20046;-75
2023/11/28 00:29:09;;;;;;;5.15;4.80;;;;;;;;;;4957882;28;20051;-76
2023/11/28 00:31:34;;;;;;;4.93;4.25;;;;;;;;;;4969835;28;20592;-76
2023/11/28 00:34:01;;;;;;;5.38;4.97;;;;;;;;;;4948909;29;20054;-76
2023/11/28 00:36:27;;;;;;;4.72;3.90;;;;;;;;;;4967960;28;20549;-76
2023/11/28 00:38:53;;;;;;;4.65;4.25;;;;;;;;;;4974594;28;20050;-76
2023/11/28 00:41:19;;;;;;;5.88;4.93;;;;;;;;;;4974034;28;20455;-75
2023/11/28 00:43:45;;;;;;;6.50;5.53;;;;;;;;;;4957181;28;20038;-76
2023/11/28 00:46:13;;;;;;;5.38;4.53;;;;;;;;;;4960208;28;20067;-76
2023/11/28 00:48:39;;;;;;;5.53;4.78;;;;;;;;;;4968311;28;20049;-75
2023/11/28 00:51:06;;;;;;;6.28;4.82;;;;;;;;;;4967217;28;20049;-76
2023/11/28 00:53:32;;;;;;;5.25;4.75;;;;;;;;;;4956235;28;20047;-75
2023/11/28 00:55:58;;;;;;;5.03;4.63;;;;;;;;;;4941354;28;20113;-75
2023/11/28 00:58:24;;;;;;;4.95;4.55;;;;;;;;;;4956427;28;20047;-75
2023/11/28 01:00:51;;;;;;;5.28;4.88;;;;;;;;;;4973120;28;20057;-74
2023/11/28 01:03:17;;;;;;;4.32;4.03;;;;;;;;;;4961250;28;20068;-75
2023/11/28 01:05:43;;;;;;;4.70;4.35;;;;;;;;;;4969126;28;20968;-76
2023/11/28 01:08:09;;;;;;;5.90;5.40;;;;;;;;;;4967864;28;20560;-74
2023/11/28 01:10:37;;;;;;;4.18;3.88;;;;;;;;;;4962286;28;20108;-75
2023/11/28 01:13:03;;;;;;;5.28;4.80;;;;;;;;;;4971043;28;20117;-75
2023/11/28 01:15:29;;;;;;;4.40;4.00;;;;;;;;;;4955084;28;20049;-75
2023/11/28 01:17:55;;;;;;;3.85;3.53;;;;;;;;;;4962065;28;20051;-75
2023/11/28 01:20:21;;;;;;;6.10;5.60;;;;;;;;;;4955710;28;20085;-75
2023/11/28 01:22:47;;;;;;;4.53;4.22;;;;;;;;;;4969656;28;20051;-73
2023/11/28 01:25:13;;;;;;;5.22;3.78;;;;;;;;;;4968363;28;20042;-76
2023/11/28 01:27:39;;;;;;;4.30;4.00;;;;;;;;;;4967528;28;20065;-76
2023/11/28 01:30:06;;;;;;;3.67;3.40;;;;;;;;;;4970159;28;20055;-77
2023/11/28 01:32:32;;;;;;;4.60;4.20;;;;;;;;;;4957167;28;20070;-74
2023/11/28 01:34:58;;;;;;;3.17;2.97;;;;;;;;;;4955989;28;20517;-75
2023/11/28 01:37:24;;;;;;;4.45;3.92;;;;;;;;;;4955223;28;20418;-75
2023/11/28 01:39:50;;;;;;;4.30;3.92;;;;;;;;;;4954842;28;20051;-76
2023/11/28 01:42:16;;;;;;;3.97;3.67;;;;;;;;;;4957353;28;20024;-76
2023/11/28 01:44:43;;;;;;;5.05;3.85;;;;;;;;;;4970001;28;20517;-76
2023/11/28 01:47:09;;;;;;;4.40;4.00;;;;;;;;;;4969053;28;20551;-76
2023/11/28 01:49:37;;;;;;;6.30;4.85;;;;;;;;;;4957978;28;20471;-78
2023/11/28 01:52:03;;;;;;;5.10;4.60;;;;;;;;;;4946154;28;20094;-76
2023/11/28 01:54:29;;;;;;;3.78;3.47;;;;;;;;;;4955971;28;20041;-78
2023/11/28 01:56:55;;;;;;;4.90;4.50;;;;;;;;;;4953684;28;20169;-77
2023/11/28 01:59:21;;;;;;;6.55;6.00;;;;;;;;;;4962153;28;20038;-77
2023/11/28 02:01:48;;;;;;;4.28;3.78;;;;;;;;;;4968141;28;20043;-77
2023/11/28 02:04:14;;;;;;;5.05;4.30;;;;;;;;;;4973080;28;20113;-78
2023/11/28 02:06:40;;;;;;;3.85;3.58;;;;;;;;;;4968123;28;20038;-76
2023/11/28 02:09:08;;;;;;;4.10;3.78;;;;;;;;;;4956039;28;20039;-77
2023/11/28 02:11:34;;;;;;;3.78;3.58;;;;;;;;;;4969384;28;20049;-75
2023/11/28 02:14:00;;;;;;;5.00;4.53;;;;;;;;;;4972426;28;20043;-75
2023/11/28 02:16:27;;;;;;;3.90;3.50;;;;;;;;;;4979075;28;20536;-77
2023/11/28 02:18:53;;;;;;;4.20;3.80;;;;;;;;;;4940520;28;20046;-75
2023/11/28 02:21:20;;;;;;;4.50;4.20;;;;;;;;;;4970689;28;20078;-76
2023/11/28 02:23:46;;;;;;;4.50;4.15;;;;;;;;;;4954241;28;20524;-76
2023/11/28 02:26:23;;;;;;;4.20;3.90;;;;;;;;;;4955640;28;20061;-75
2023/11/28 02:28:49;;;;;;;3.67;3.47;;;;;;;;;;4954387;28;20034;-76
2023/11/28 02:31:15;;;;;;;5.38;4.90;;;;;;;;;;4970676;28;20047;-76
2023/11/28 02:33:42;;;;;;;3.90;3.60;;;;;;;;;;4971107;28;20042;-75
2023/11/28 02:36:08;;;;;;;3.95;3.72;;;;;;;;;;4966250;28;20039;-76
2023/11/28 02:38:34;;;;;;;4.60;3.83;;;;;;;;;;4952866;28;20043;-75
2023/11/28 02:41:00;;;;;;;4.00;3.70;;;;;;;;;;4955163;28;20062;-76
2023/11/28 02:43:26;;;;;;;4.38;3.97;;;;;;;;;;4954399;28;20047;-76
2023/11/28 02:45:52;;;;;;;5.15;4.75;;;;;;;;;;4952642;28;20042;-76
2023/11/28 02:48:18;;;;;;;5.25;4.85;;;;;;;;;;4960851;28;20042;-76
2023/11/28 02:50:45;;;;;;;5.18;4.78;;;;;;;;;;4964941;28;20073;-76
2023/11/28 02:53:11;;;;;;;4.65;4.35;;;;;;;;;;4971527;28;20097;-76
2023/11/28 02:55:37;;;;;;;4.55;4.20;;;;;;;;;;4967744;28;20050;-76
2023/11/28 02:58:03;;;;;;;5.90;5.40;;;;;;;;;;4980047;28;20126;-76
2023/11/28 03:00:29;;;;;;;4.53;4.22;;;;;;;;;;4942657;28;20487;-75
2023/11/28 03:02:55;;;;;;;5.35;4.85;;;;;;;;;;4980182;28;20051;-75
2023/11/28 03:05:21;;;;;;;4.20;3.38;;;;;;;;;;4982597;28;20140;-76
2023/11/28 03:07:47;;;;;;;3.55;3.25;;;;;;;;;;4978588;28;20046;-75
2023/11/28 03:10:15;;;;;;;5.43;4.97;;;;;;;;;;4987548;28;20070;-76
2023/11/28 03:12:41;;;;;;;6.18;5.07;;;;;;;;;;4980282;28;20031;-75
2023/11/28 03:15:07;;;;;;;6.25;5.75;;;;;;;;;;4971109;28;20047;-75
2023/11/28 03:17:34;;;;;;;5.60;3.30;;;;;;;;;;4953870;28;20042;-74
2023/11/28 03:20:00;;;;;;;4.68;4.38;;;;;;;;;;4970477;28;20113;-75
2023/11/28 03:22:26;;;;;;;3.67;3.45;;;;;;;;;;4970527;28;20034;-74
2023/11/28 03:24:52;;;;;;;5.68;4.70;;;;;;;;;;4968862;28;20509;-75
2023/11/28 03:27:18;;;;;;;4.85;4.43;;;;;;;;;;4934655;29;20042;-76
2023/11/28 03:29:45;;;;;;;4.03;3.72;;;;;;;;;;4970097;28;20047;-75
2023/11/28 03:32:11;;;;;;;5.90;4.82;;;;;;;;;;4970589;28;20043;-76
2023/11/28 03:34:40;;;;;;;6.65;5.68;;;;;;;;;;4968647;28;20140;-76
2023/11/28 03:37:07;;;;;;;5.55;5.05;;;;;;;;;;4984776;28;20046;-82
2023/11/28 03:39:34;;;;;;;7.25;6.55;;;;;;;;;;4978360;28;20050;-79
2023/11/28 03:42:00;;;;;;;7.35;6.65;;;;;;;;;;4968565;28;20521;-79
2023/11/28 03:44:26;;;;;;;5.03;4.60;;;;;;;;;;4981122;28;20050;-79
2023/11/28 03:46:52;;;;;;;18.63;4.50;;;;;;;;;;4963796;28;20049;-78
2023/11/28 03:49:18;;;;;;;4.75;4.32;;;;;;;;;;4982351;28;20053;-79
2023/11/28 03:51:45;;;;;;;4.90;4.43;;;;;;;;;;4982111;28;20042;-78
2023/11/28 03:54:11;;;;;;;3.85;3.58;;;;;;;;;;4949814;28;20023;-78
2023/11/28 03:56:38;;;;;;;9.35;4.10;;;;;;;;;;4960994;28;20525;-79
2023/11/28 03:59:04;;;;;;;5.20;4.78;;;;;;;;;;4959747;28;20180;-78
2023/11/28 04:01:30;;;;;;;4.55;4.07;;;;;;;;;;4971378;28;20063;-78
2023/11/28 04:03:56;;;;;;;4.78;4.38;;;;;;;;;;4960596;28;20053;-79
2023/11/28 04:06:22;;;;;;;4.50;4.10;;;;;;;;;;4975535;28;20039;-77
2023/11/28 04:08:51;;;;;;;5.57;5.07;;;;;;;;;;4972613;28;20037;-78
2023/11/28 04:11:18;;;;;;;4.82;4.47;;;;;;;;;;4975412;28;20054;-77
2023/11/28 04:13:44;;;;;;;4.53;4.22;;;;;;;;;;4974763;28;20030;-77
2023/11/28 04:16:14;;;;;;;6.75;5.47;;;;;;;;;;4978267;28;20077;-78
2023/11/28 04:18:41;;;;;;;6.57;5.43;;;;;;;;;;4965997;28;20032;-79
2023/11/28 04:21:07;;;;;;;6.70;5.10;;;;;;;;;;4968576;28;20047;-79
2023/11/28 04:23:33;;;;;;;6.13;5.65;;;;;;;;;;4980181;28;20050;-79
2023/11/28 04:26:02;;;;;;;5.10;4.60;;;;;;;;;;4978855;28;20054;-79
2023/11/28 04:28:28;;;;;;;8.55;6.45;;;;;;;;;;4980609;28;20046;-79
2023/11/28 04:30:55;;;;;;;6.13;5.63;;;;;;;;;;4966744;28;20115;-80
2023/11/28 04:33:21;;;;;;;5.88;5.38;;;;;;;;;;4959328;28;20066;-80
2023/11/28 04:35:47;;;;;;;7.43;6.43;;;;;;;;;;4978039;28;20045;-78
2023/11/28 04:38:13;;;;;;;5.57;5.07;;;;;;;;;;4960369;28;20042;-78
2023/11/28 04:40:39;;;;;;;7.82;7.00;;;;;;;;;;4973781;28;20158;-79
2023/11/28 04:43:06;;;;;;;6.90;6.30;;;;;;;;;;4963406;28;20070;-78
2023/11/28 04:45:32;;;;;;;6.50;5.95;;;;;;;;;;4958091;28;20121;-79
2023/11/28 04:47:58;;;;;;;4.72;4.30;;;;;;;;;;4951170;28;20476;-79
2023/11/28 04:50:24;;;;;;;5.00;4.60;;;;;;;;;;4954683;28;20066;-79
2023/11/28 04:52:50;;;;;;;4.35;3.95;;;;;;;;;;4974139;28;20035;-79
2023/11/28 04:55:17;;;;;;;5.35;4.93;;;;;;;;;;4938436;29;20413;-77
2023/11/28 04:57:44;;;;;;;4.90;4.47;;;;;;;;;;4975249;28;20520;-77
2023/11/28 05:00:10;;;;;;;7.65;7.03;;;;;;;;;;4969377;28;20070;-78
2023/11/28 05:02:37;;;;;;;5.10;4.70;;;;;;;;;;4954293;28;20518;-76
2023/11/28 05:05:05;;;;;;;6.07;5.35;;;;;;;;;;4959361;28;20051;-78
2023/11/28 05:07:31;;;;;;;7.95;7.15;;;;;;;;;;4959105;28;20061;-77
2023/11/28 05:09:57;;;;;;;6.10;5.50;;;;;;;;;;4959476;28;20138;-77
2023/11/28 05:12:24;;;;;;;7.88;5.70;;;;;;;;;;4955776;28;20118;-77
2023/11/28 05:14:50;;;;;;;6.95;6.32;;;;;;;;;;4969476;28;20129;-76
2023/11/28 05:17:18;;;;;;;5.70;5.10;;;;;;;;;;4974313;28;20102;-76
2023/11/28 05:19:44;;;;;;;5.82;5.05;;;;;;;;;;4976986;28;20109;-76
2023/11/28 05:22:10;;;;;;;6.22;5.63;;;;;;;;;;4961083;28;20122;-77
2023/11/28 05:24:36;;;;;;;7.55;5.03;;;;;;;;;;4977731;28;20497;-77
2023/11/28 05:27:02;;;;;;;6.60;6.00;;;;;;;;;;4961052;28;20039;-75
2023/11/28 05:29:29;;;;;;;4.60;4.18;;;;;;;;;;4955659;23;20169;-75
2023/11/28 05:31:55;;;;;;;6.25;5.40;;;;;;;;;;4987511;28;20050;-77
2023/11/28 05:34:21;;;;;;;5.82;5.30;;;;;;;;;;4970652;28;20050;-75
2023/11/28 05:36:47;;;;;;;6.07;5.60;;;;;;;;;;4975322;28;20129;-75
2023/11/28 05:39:14;;;;;;;6.20;5.60;;;;;;;;;;4986971;28;20058;-76
2023/11/28 05:41:41;;;;;;;6.07;5.57;;;;;;;;;;4975126;28;20052;-76
2023/11/28 05:44:07;;;;;;;7.38;6.65;;;;;;;;;;4985230;28;20068;-76
2023/11/28 05:46:33;;;;;;;6.22;5.72;;;;;;;;;;4975176;28;20049;-77
2023/11/28 05:49:00;;;;;;;5.90;5.40;;;;;;;;;;4974651;28;20046;-76
2023/11/28 05:51:26;;;;;;;5.35;4.55;;;;;;;;;;4959064;28;20121;-77
2023/11/28 05:53:53;;;;;;;6.55;5.95;;;;;;;;;;4993609;28;20404;-76
2023/11/28 05:56:19;;;;;;;4.28;3.90;;;;;;;;;;4974963;28;20042;-76
2023/11/28 05:58:45;;;;;;;5.70;5.25;;;;;;;;;;4985619;28;20045;-75
2023/11/28 06:01:17;;;;;;;4.05;3.75;;;;;;;;;;4970725;28;20050;-75
2023/11/28 06:03:43;;;;;;;5.78;5.32;;;;;;;;;;4991216;28;20034;-75
2023/11/28 06:06:09;;;;;;;7.95;6.50;;;;;;;;;;4974337;28;20045;-75
2023/11/28 06:08:36;;;;;;;4.68;4.30;;;;;;;;;;4954959;28;20039;-74
2023/11/28 06:11:02;;;;;;;4.47;4.07;;;;;;;;;;4973569;28;20081;-74
2023/11/28 06:13:29;;;;;;;5.85;5.35;;;;;;;;;;4968343;28;20046;-74
2023/11/28 06:15:54;;;;;;;7.82;5.72;;;;;;;;;;4991505;28;20527;-75
2023/11/28 06:18:20;;;;;;;5.47;4.97;;;;;;;;;;4973058;28;20039;-75
2023/11/28 06:20:46;;;;;;;5.97;5.47;;;;;;;;;;4974128;28;20050;-74
2023/11/28 06:23:13;;;;;;;5.13;4.10;;;;;;;;;;4954275;28;20042;-77
2023/11/28 06:25:39;;;;;;;4.75;4.43;;;;;;;;;;4992114;28;20087;-75
2023/11/28 06:28:05;;;;;;;9.13;5.32;;;;;;;;;;4988316;28;20045;-74
2023/11/28 06:30:31;;;;;;;6.25;5.75;;;;;;;;;;4987822;28;20054;-76
2023/11/28 06:32:57;;;;;;;4.57;4.18;;;;;;;;;;4972661;28;20231;-74
2023/11/28 06:35:24;;;;;;;4.70;4.30;;;;;;;;;;4973623;28;20109;-76
2023/11/28 06:37:50;;;;;;;7.20;5.65;;;;;;;;;;4990504;28;20174;-76
2023/11/28 06:40:18;;;;;;;5.75;4.68;;;;;;;;;;4991128;28;20448;-78
2023/11/28 06:42:44;;;;;;;6.03;5.45;;;;;;;;;;4991723;28;20046;-76
2023/11/28 06:45:10;;;;;;;5.68;5.18;;;;;;;;;;4991828;28;20042;-77
2023/11/28 06:47:36;;;;;;;4.53;4.10;;;;;;;;;;4990306;28;20042;-75
2023/11/28 06:50:03;;;;;;;5.93;5.43;;;;;;;;;;4989654;28;20512;-77
2023/11/28 06:52:29;;;;;;;5.07;4.68;;;;;;;;;;4990503;28;20134;-77
2023/11/28 06:54:55;;;;;;;7.03;5.18;;;;;;;;;;4991289;28;20117;-76
2023/11/28 06:57:21;;;;;;;4.93;4.43;;;;;;;;;;4991022;28;20042;-76
2023/11/28 06:59:47;;;;;;;5.05;4.28;;;;;;;;;;4974449;28;20050;-75
2023/11/28 07:02:13;;;;;;;6.68;6.03;;;;;;;;;;4970844;28;20038;-77
2023/11/28 07:04:42;;;;;;;6.13;5.63;;;;;;;;;;4989160;28;20073;-74
2023/11/28 07:07:08;;;;;;;6.68;6.07;;;;;;;;;;4990835;28;20077;-75
2023/11/28 07:09:34;;;;;;;5.13;4.72;;;;;;;;;;4988715;28;20077;-75
2023/11/28 07:12:01;;;;;;;5.30;4.90;;;;;;;;;;4971056;28;20030;-75
2023/11/28 07:14:27;;;;;;;5.13;4.72;;;;;;;;;;4972536;28;20038;-75
2023/11/28 07:16:53;;;;;;;5.70;5.22;;;;;;;;;;4956474;28;20504;-74
2023/11/28 07:19:19;;;;;;;5.20;4.72;;;;;;;;;;4989110;28;20486;-75
2023/11/28 07:21:45;;;;;;;5.38;4.88;;;;;;;;;;4972695;28;20065;-75
2023/11/28 07:24:11;;;;;;;5.75;5.25;;;;;;;;;;4990264;28;20057;-76
2023/11/28 07:26:37;;;;;;;6.55;5.20;;;;;;;;;;4989469;28;20447;-75
2023/11/28 07:29:03;;;;;;;7.32;5.45;;;;;;;;;;4970633;28;20057;-77
2023/11/28 07:31:29;;;;;;;5.75;5.30;;;;;;;;;;4989544;28;20048;-76
2023/11/28 07:33:55;;;;;;;7.40;5.65;;;;;;;;;;4973604;28;20180;-74
2023/11/28 07:36:21;;;;;;;4.90;4.60;;;;;;;;;;4991171;28;20498;-75
2023/11/28 07:38:49;;;;;;;4.90;4.50;;;;;;;;;;4974344;28;20074;-75
2023/11/28 07:41:15;;;;;;;4.45;4.13;;;;;;;;;;4956087;28;20606;-75
2023/11/28 07:43:42;;;;;;;5.78;4.90;;;;;;;;;;4989481;28;20046;-76
2023/11/28 07:46:08;;;;;;;4.50;4.13;;;;;;;;;;4990173;28;20085;-77
2023/11/28 07:48:34;;;;;;;5.28;4.78;;;;;;;;;;4958538;28;20040;-76
2023/11/28 07:51:00;;;;;;;6.63;5.60;;;;;;;;;;4956084;28;20043;-75
2023/11/28 07:53:26;;;;;;;5.53;4.20;;;;;;;;;;4972364;28;20200;-75
2023/11/28 07:55:52;;;;;;;8.00;7.35;;;;;;;;;;4990650;28;20042;-76
2023/11/28 07:58:18;;;;;;;6.70;6.10;;;;;;;;;;4990627;28;20053;-77
2023/11/28 08:00:44;;;;;;;11.32;5.68;;;;;;;;;;4972770;28;20056;-77
2023/11/28 08:03:10;;;;;;;4.47;4.18;;;;;;;;;;4989892;28;20038;-77
2023/11/28 08:05:37;;;;;;;4.95;4.55;;;;;;;;;;4990429;28;20050;-75
2023/11/28 08:08:03;;;;;;;5.18;4.68;;;;;;;;;;4976130;28;20042;-76
2023/11/28 08:10:29;;;;;;;6.45;5.80;;;;;;;;;;4984131;28;20073;-75
2023/11/28 08:12:55;;;;;;;3.55;3.25;;;;;;;;;;4991097;28;20040;-77
2023/11/28 08:15:22;;;;;;;4.90;4.50;;;;;;;;;;4975414;28;20121;-77
2023/11/28 08:17:48;;;;;;;4.78;4.38;;;;;;;;;;4998210;28;20068;-76
2023/11/28 08:20:14;;;;;;;3.58;3.38;;;;;;;;;;4999929;28;20046;-77
2023/11/28 08:22:40;;;;;;;4.03;3.72;;;;;;;;;;4998142;28;20077;-77
2023/11/28 08:25:06;;;;;;;5.10;4.70;;;;;;;;;;4967370;28;20039;-75
2023/11/28 08:27:32;;;;;;;6.30;5.75;;;;;;;;;;5000833;28;20094;-77
2023/11/28 08:29:58;;;;;;;5.20;3.42;;;;;;;;;;5004551;28;20050;-78
2023/11/28 08:32:24;;;;;;;5.10;4.70;;;;;;;;;;4985045;28;20125;-76
2023/11/28 08:34:50;;;;;;;6.22;5.50;;;;;;;;;;4993678;28;20096;-75
2023/11/28 08:37:16;;;;;;;6.20;5.60;;;;;;;;;;4974881;28;20043;-76
2023/11/28 08:39:42;;;;;;;5.82;4.72;;;;;;;;;;4992775;28;20054;-75
2023/11/28 08:42:10;;;;;;;5.38;4.88;;;;;;;;;;4975403;28;20057;-76
2023/11/28 08:44:37;;;;;;;4.03;3.70;;;;;;;;;;4975445;28;20045;-74
2023/11/28 08:47:03;;;;;;;4.97;4.63;;;;;;;;;;4991887;28;20657;-74
2023/11/28 08:49:29;;;;;;;5.00;3.13;;;;;;;;;;4992145;28;20389;-74
2023/11/28 08:51:56;;;;;;;4.82;4.25;;;;;;;;;;4992385;28;20042;-74
2023/11/28 08:54:22;;;;;;;4.40;4.00;;;;;;;;;;4974454;28;20475;-74
2023/11/28 08:56:48;;;;;;;7.38;5.40;;;;;;;;;;4992217;28;20058;-74
2023/11/28 08:59:14;;;;;;;7.13;6.00;;;;;;;;;;4991820;28;20057;-74
2023/11/28 09:01:40;;;;;;;3.60;3.33;;;;;;;;;;4971239;28;20038;-75
2023/11/28 09:04:06;;;;;;;4.40;4.07;;;;;;;;;;4990637;28;20034;-75
2023/11/28 09:06:32;;;;;;;4.10;3.38;;;;;;;;;;4990159;28;20046;-75
2023/11/28 09:08:58;;;;;;;5.07;4.65;;;;;;;;;;4990270;28;20043;-75
2023/11/28 09:11:24;;;;;;;6.40;5.82;;;;;;;;;;4972045;28;20578;-74
2023/11/28 09:13:50;;;;;;;4.20;3.80;;;;;;;;;;4953167;28;20775;-74
2023/11/28 09:16:16;;;;;;;4.88;4.50;;;;;;;;;;4985688;28;20050;-75
2023/11/28 09:18:42;;;;;;;5.60;5.10;;;;;;;;;;4988318;28;20522;-75
2023/11/28 09:21:08;;;;;;;4.90;4.30;;;;;;;;;;4989824;28;20560;-75
2023/11/28 09:23:35;;;;;;;4.93;4.53;;;;;;;;;;4990072;28;20408;-74
2023/11/28 09:26:01;;;;;;;6.05;5.55;;;;;;;;;;4956593;28;20058;-75
2023/11/28 09:28:27;;;;;;;6.15;5.55;;;;;;;;;;4972630;28;20037;-74
2023/11/28 09:30:53;;;;;;;4.95;4.47;;;;;;;;;;4989764;28;20046;-75
2023/11/28 09:33:19;;;;;;;4.18;3.78;;;;;;;;;;4989352;28;20062;-75
2023/11/28 09:35:45;;;;;;;3.38;3.15;;;;;;;;;;4989403;28;20038;-75
2023/11/28 09:38:11;;;;;;;4.28;3.95;;;;;;;;;;4989444;28;20609;-75
2023/11/28 09:40:38;;;;;;;3.33;3.08;;;;;;;;;;4989129;28;20156;-75
2023/11/28 09:43:04;;;;;;;4.55;4.13;;;;;;;;;;4989419;28;20069;-74
2023/11/28 09:45:32;;;;;;;4.22;3.58;;;;;;;;;;4990404;28;20132;-74
2023/11/28 09:48:01;;;;;;;3.03;2.83;;;;;;;;;;4991758;28;20053;-74
2023/11/28 09:50:27;;;;;;;5.43;4.93;;;;;;;;;;4974894;28;20125;-75
2023/11/28 09:52:53;;;;;;;4.63;4.22;;;;;;;;;;4992308;28;20117;-75
2023/11/28 09:55:19;;;;;;;5.38;4.78;;;;;;;;;;4973895;28;20057;-76
2023/11/28 09:57:47;;;;;;;3.97;3.67;;;;;;;;;;4991143;28;20034;-75
2023/11/28 10:00:21;;;;;;;4.53;4.10;;;;;;;;;;4990947;28;20185;-75
2023/11/28 10:02:49;;;;;;;4.70;4.30;;;;;;;;;;4991488;28;20045;-75
2023/11/28 10:05:16;;;;;;;6.15;5.05;;;;;;;;;;4987470;28;20050;-75
2023/11/28 10:07:44;;;;;;;5.47;4.88;;;;;;;;;;4991564;28;20046;-75
2023/11/28 10:10:10;;;;;;;5.13;4.72;;;;;;;;;;4973831;28;20046;-75
2023/11/28 10:12:38;;;;;;;4.80;4.47;;;;;;;;;;4990982;28;20527;-75
2023/11/28 10:15:06;;;;;;;5.32;4.85;;;;;;;;;;4973002;28;20424;-75
2023/11/28 10:17:33;;;;;;;4.65;4.25;;;;;;;;;;4973176;28;20420;-76
2023/11/28 10:20:08;;;;;;;4.03;3.65;;;;;;;;;;4972910;28;20054;-75
2023/11/28 10:22:35;;;;;;;4.68;4.28;;;;;;;;;;4957409;28;20065;-75
2023/11/28 10:25:10;;;;;;;4.47;4.10;;;;;;;;;;4992059;28;20508;-75
2023/11/28 10:27:38;;;;;;;5.72;5.22;;;;;;;;;;4991079;28;20042;-75
2023/11/28 10:30:09;;;;;;;5.22;4.72;;;;;;;;;;4940705;28;20436;-75
2023/11/28 10:32:37;;;;;;;6.60;6.05;;;;;;;;;;4990764;28;20042;-74
2023/11/28 10:35:05;;;;;;;3.47;3.13;;;;;;;;;;4963743;28;20061;-76
2023/11/28 10:37:39;;;;;;;5.47;4.97;;;;;;;;;;4991741;28;20052;-77
2023/11/28 10:40:09;;;;;;;4.22;3.92;;;;;;;;;;4991410;28;20120;-76
2023/11/28 10:42:35;;;;;;;3.10;2.90;;;;;;;;;;4993822;28;20514;-77
2023/11/28 10:45:01;;;;;;;4.22;3.92;;;;;;;;;;4990526;28;20137;-78
2023/11/28 10:47:31;;;;;;;4.38;4.07;;;;;;;;;;4974048;28;20051;-77
2023/11/28 10:49:57;;;;;;;6.78;4.72;;;;;;;;;;4991976;28;20042;-77
2023/11/28 10:52:26;;;;;;;4.00;3.70;;;;;;;;;;4941547;28;20045;-77
2023/11/28 10:54:56;;;;;;;4.00;3.60;;;;;;;;;;4966801;28;20575;-77
2023/11/28 10:57:28;;;;;;;6.32;5.07;;;;;;;;;;4990169;28;20038;-77
2023/11/28 11:00:09;;;;;;;4.68;4.28;;;;;;;;;;4989815;28;20050;-77
2023/11/28 11:02:35;;;;;;;4.60;4.15;;;;;;;;;;4972925;28;20081;-77
2023/11/28 11:05:06;;;;;;;8.15;4.35;;;;;;;;;;4991927;28;20452;-77
2023/11/28 11:07:33;;;;;;;8.25;4.85;;;;;;;;;;4978378;28;20083;-77
2023/11/28 11:10:00;;;;;;;4.75;4.35;;;;;;;;;;5004207;28;20043;-82
2023/11/28 11:12:26;;;;;;;3.67;3.38;;;;;;;;;;4976319;28;20346;-80
2023/11/28 11:14:52;;;;;;;2.65;2.45;;;;;;;;;;4963868;28;20050;-80
2023/11/28 11:17:33;;;;;;;4.13;3.75;;;;;;;;;;4976686;28;20048;-79
2023/11/28 11:19:59;;;;;;;6.15;4.05;;;;;;;;;;4975203;28;20050;-79
2023/11/28 11:22:32;;;;;;;5.15;4.65;;;;;;;;;;4977481;28;20038;-79
2023/11/28 11:25:03;;;;;;;4.47;4.18;;;;;;;;;;4974639;28;20073;-78
2023/11/28 11:27:30;;;;;;;4.90;4.40;;;;;;;;;;4972469;28;20402;-78
2023/11/28 11:29:56;;;;;;;5.18;4.78;;;;;;;;;;4963059;28;20050;-81
2023/11/28 11:32:23;;;;;;;7.70;4.28;;;;;;;;;;4944119;28;20113;-78
2023/11/28 11:34:49;;;;;;;3.67;3.47;;;;;;;;;;4995107;28;20030;-79
2023/11/28 11:37:19;;;;;;;4.43;4.13;;;;;;;;;;4997640;28;20042;-79
2023/11/28 11:39:49;;;;;;;4.43;4.03;;;;;;;;;;5001705;28;20046;-79
2023/11/28 11:42:19;;;;;;;5.55;4.82;;;;;;;;;;4997538;28;20513;-79
2023/11/28 11:44:49;;;;;;;4.40;4.03;;;;;;;;;;4992781;28;20643;-77
2023/11/28 11:47:16;;;;;;;5.93;4.70;;;;;;;;;;4986154;28;20172;-78
2023/11/28 11:49:43;;;;;;;5.30;4.80;;;;;;;;;;4989925;28;20179;-79
2023/11/28 11:52:11;;;;;;;4.63;3.85;;;;;;;;;;4973543;28;20421;-77
2023/11/28 11:54:38;;;;;;;4.45;4.15;;;;;;;;;;4974580;28;20034;-79
2023/11/28 11:57:10;;;;;;;7.68;6.88;;;;;;;;;;4992578;28;20047;-78
2023/11/28 11:59:36;;;;;;;4.32;4.00;;;;;;;;;;4997939;28;20406;-79
2023/11/28 12:02:03;;;;;;;5.07;4.63;;;;;;;;;;4955554;28;20100;-77
2023/11/28 12:04:29;;;;;;;5.70;5.20;;;;;;;;;;4959427;28;20050;-77
2023/11/28 12:07:06;;;;;;;4.85;4.40;;;;;;;;;;4943468;28;20039;-77
2023/11/28 12:09:32;;;;;;;5.65;4.68;;;;;;;;;;4959248;28;20042;-76
2023/11/28 12:11:58;;;;;;;6.00;5.10;;;;;;;;;;4943614;28;20042;-77
2023/11/28 12:14:24;;;;;;;3.72;3.53;;;;;;;;;;4959527;28;20091;-75
2023/11/28 12:16:51;;;;;;;8.30;5.55;;;;;;;;;;4963470;28;20042;-77
2023/11/28 12:19:17;;;;;;;5.32;4.82;;;;;;;;;;4969311;28;20591;-78
2023/11/28 12:21:44;;;;;;;4.78;4.38;;;;;;;;;;4984211;28;20039;-80
2023/11/28 12:24:09;;;;;;;6.07;5.18;;;;;;;;;;4990980;28;20038;-79
2023/11/28 12:26:36;;;;;;;5.90;5.05;;;;;;;;;;4963362;28;20042;-79
2023/11/28 12:29:02;;;;;;;4.50;4.10;;;;;;;;;;4997312;28;20043;-79
2023/11/28 12:31:28;;;;;;;6.47;3.88;;;;;;;;;;4996219;28;20050;-79
2023/11/28 12:33:54;;;;;;;5.88;5.38;;;;;;;;;;4982128;28;20137;-79
2023/11/28 12:36:25;;;;;;;5.65;5.15;;;;;;;;;;4977659;28;20303;-79
2023/11/28 12:38:52;;;;;;;9.50;7.47;;;;;;;;;;4974261;28;20098;-79
2023/11/28 12:41:19;;;;;;;5.18;4.68;;;;;;;;;;4998678;28;20058;-79
2023/11/28 12:43:45;;;;;;;4.63;4.22;;;;;;;;;;4981141;28;20053;-79
2023/11/28 12:46:11;;;;;;;6.00;4.95;;;;;;;;;;4996959;28;20447;-80
2023/11/28 12:48:37;;;;;;;4.28;2.50;;;;;;;;;;4999531;28;20035;-80
2023/11/28 12:51:03;;;;;;;6.28;5.50;;;;;;;;;;4982066;28;20030;-78
2023/11/28 12:53:30;;;;;;;5.78;5.30;;;;;;;;;;5006356;28;20034;-81
2023/11/28 12:55:56;;;;;;;4.97;4.57;;;;;;;;;;5000238;28;20086;-82
2023/11/28 12:58:24;;;;;;;7.35;6.72;;;;;;;;;;5015089;28;20054;-82
2023/11/28 13:00:51;;;;;;;3.90;3.60;;;;;;;;;;5014556;28;20046;-82
2023/11/28 13:03:17;;;;;;;4.97;4.55;;;;;;;;;;5012389;28;20061;-83
2023/11/28 13:05:43;;;;;;;3.42;3.22;;;;;;;;;;5015047;28;20034;-82
2023/11/28 13:08:09;;;;;;;5.40;5.00;;;;;;;;;;5012400;28;20106;-82
2023/11/28 13:10:35;;;;;;;4.40;4.03;;;;;;;;;;5011436;28;20065;-81
2023/11/28 13:13:02;;;;;;;11.23;4.32;;;;;;;;;;4990459;28;20173;-80
2023/11/28 13:15:28;;;;;;;4.72;4.43;;;;;;;;;;4968554;28;20038;-79
2023/11/28 13:17:54;;;;;;;3.38;3.15;;;;;;;;;;4937988;28;20046;-80
2023/11/28 13:20:22;;;;;;;5.50;5.10;;;;;;;;;;4979047;28;20482;-79
2023/11/28 13:22:48;;;;;;;4.30;3.97;;;;;;;;;;4995863;28;20101;-80
2023/11/28 13:25:14;;;;;;;4.65;4.35;;;;;;;;;;4967339;28;20030;-80
2023/11/28 13:27:42;;;;;;;6.45;5.85;;;;;;;;;;4964364;28;20206;-80
2023/11/28 13:30:08;;;;;;;5.05;4.65;;;;;;;;;;4966835;28;20081;-80
2023/11/28 13:32:34;;;;;;;7.20;6.03;;;;;;;;;;4978711;28;20049;-79
2023/11/28 13:35:00;;;;;;;4.85;4.45;;;;;;;;;;4963849;28;20129;-80
2023/11/28 13:37:27;;;;;;;5.45;4.95;;;;;;;;;;4997765;28;20042;-80
2023/11/28 13:39:53;;;;;;;4.32;3.92;;;;;;;;;;4952815;28;20129;-80
2023/11/28 13:42:19;;;;;;;4.25;3.85;;;;;;;;;;4942163;28;20039;-79
2023/11/28 13:44:45;;;;;;;6.45;5.75;;;;;;;;;;4955135;28;20098;-78
2023/11/28 13:47:12;;;;;;;5.68;5.18;;;;;;;;;;4973872;28;20103;-76
2023/11/28 13:49:38;;;;;;;5.00;4.53;;;;;;;;;;4991546;28;20098;-76
2023/11/28 13:52:04;;;;;;;7.25;5.75;;;;;;;;;;4955627;28;20058;-76
2023/11/28 13:54:30;;;;;;;6.35;5.68;;;;;;;;;;4957775;28;20074;-76
2023/11/28 13:56:56;;;;;;;5.63;5.13;;;;;;;;;;4974720;28;20141;-77
2023/11/28 13:59:22;;;;;;;5.25;4.78;;;;;;;;;;4977503;28;20520;-80
2023/11/28 14:01:48;;;;;;;4.88;3.85;;;;;;;;;;4998680;28;20069;-80
2023/11/28 14:04:14;;;;;;;5.97;5.28;;;;;;;;;;4984221;28;20129;-80
2023/11/28 14:06:40;;;;;;;6.43;5.63;;;;;;;;;;4992375;28;20042;-77
2023/11/28 14:09:08;;;;;;;6.40;5.50;;;;;;;;;;4971782;28;20082;-76
2023/11/28 14:11:34;;;;;;;6.43;5.63;;;;;;;;;;4972574;28;20101;-75
2023/11/28 14:14:00;;;;;;;6.10;5.50;;;;;;;;;;4992708;28;20038;-77
2023/11/28 14:16:27;;;;;;;8.20;7.40;;;;;;;;;;4974340;28;20038;-76
2023/11/28 14:18:54;;;;;;;6.68;5.95;;;;;;;;;;4974134;28;20050;-76
2023/11/28 14:21:20;;;;;;;4.95;4.55;;;;;;;;;;4973705;28;20074;-76
2023/11/28 14:23:46;;;;;;;4.80;4.40;;;;;;;;;;4991053;28;20459;-76
2023/11/28 14:26:12;;;;;;;6.35;5.00;;;;;;;;;;4990161;28;20068;-76
2023/11/28 14:28:38;;;;;;;5.78;5.18;;;;;;;;;;4990376;28;20053;-76
2023/11/28 14:31:05;;;;;;;4.63;4.22;;;;;;;;;;4990157;28;20145;-76
2023/11/28 14:33:31;;;;;;;5.68;5.18;;;;;;;;;;4986160;28;20054;-76
2023/11/28 14:35:57;;;;;;;5.63;5.22;;;;;;;;;;4969339;28;20409;-76
2023/11/28 14:38:23;;;;;;;5.95;5.35;;;;;;;;;;4988529;28;20500;-77
2023/11/28 14:40:50;;;;;;;6.20;5.13;;;;;;;;;;4981949;23;20050;-78